Time;durP1;ratioP1;P1;durP2;ratioP2;P2;SDS_P1;SDS_P2;PMS_P1;PMS_P2;Temp;Humidity;BMP_temperature;BMP_pressure;BME280_temperature;BME280_humidity;BME280_pressure;Samples;Min_cycle;Max_cycle;Signal;HPM_P1;HPM_P2
2024/01/02 00:02:26;;;;;;;5.50;1.47;;;;;7.80;99721.00;;;;5033428;28;20235;-69
2024/01/02 00:05:13;;;;;;;2.63;1.27;;;;;7.80;99728.00;;;;5035783;28;20803;-71
2024/01/02 00:07:59;;;;;;;7.40;1.40;;;;;7.80;99721.00;;;;5031345;28;20242;-69
2024/01/02 00:10:45;;;;;;;13.47;1.70;;;;;7.80;99718.00;;;;5041517;28;20318;-70
2024/01/02 00:13:33;;;;;;;5.53;1.70;;;;;7.80;99706.00;;;;5040155;28;20226;-70
2024/01/02 00:16:19;;;;;;;2.80;1.80;;;;;7.90;99699.00;;;;5037321;28;20854;-66
2024/01/02 00:19:06;;;;;;;3.90;1.43;;;;;7.90;99690.00;;;;5038249;28;20228;-69
2024/01/02 00:21:53;;;;;;;3.57;1.97;;;;;7.90;99692.00;;;;5033244;28;20337;-70
2024/01/02 00:24:39;;;;;;;3.13;1.73;;;;;7.80;99678.00;;;;5038637;28;20302;-69
2024/01/02 00:27:25;;;;;;;6.30;1.50;;;;;7.80;99674.00;;;;5035332;28;20223;-70
2024/01/02 00:30:14;;;;;;;9.90;2.27;;;;;7.80;99664.00;;;;5038173;28;20616;-67
2024/01/02 00:33:03;;;;;;;5.67;1.47;;;;;7.90;99650.00;;;;5036204;28;20601;-71
2024/01/02 00:35:50;;;;;;;2.33;1.27;;;;;7.90;99638.00;;;;5038002;28;20864;-69
2024/01/02 00:38:36;;;;;;;4.53;1.33;;;;;7.90;99633.00;;;;5042698;28;20236;-70
2024/01/02 00:41:22;;;;;;;3.93;1.47;;;;;7.90;99632.00;;;;5036888;28;20600;-70
2024/01/02 00:44:08;;;;;;;6.00;1.33;;;;;7.90;99620.00;;;;5034323;28;20267;-71
2024/01/02 00:46:56;;;;;;;3.50;1.10;;;;;7.90;99626.00;;;;5034391;28;20288;-70
2024/01/02 00:49:43;;;;;;;2.57;1.30;;;;;7.80;99618.00;;;;5036740;28;21090;-70
2024/01/02 00:52:29;;;;;;;3.57;1.00;;;;;7.90;99610.00;;;;5038890;28;20721;-71
2024/01/02 00:55:15;;;;;;;3.17;1.50;;;;;7.90;99600.00;;;;5034621;28;20625;-70
2024/01/02 00:58:03;;;;;;;7.90;1.23;;;;;7.90;99595.00;;;;5040180;28;20234;-68
2024/01/02 01:00:49;;;;;;;7.27;1.67;;;;;7.90;99576.00;;;;5037874;28;20240;-69
2024/01/02 01:03:38;;;;;;;1.30;1.13;;;;;7.90;99582.00;;;;5034662;28;20304;-70
2024/01/02 01:06:24;;;;;;;2.67;1.37;;;;;7.80;99570.00;;;;5037586;28;21077;-71
2024/01/02 01:09:11;;;;;;;4.23;1.40;;;;;7.90;99554.00;;;;5037821;28;20382;-70
2024/01/02 01:11:57;;;;;;;1.73;1.00;;;;;7.90;99554.00;;;;5037594;28;20228;-70
2024/01/02 01:14:43;;;;;;;7.20;1.53;;;;;7.90;99547.00;;;;5037494;28;20227;-71
2024/01/02 01:17:29;;;;;;;6.80;1.10;;;;;7.90;99524.00;;;;5037664;28;20236;-71
2024/01/02 01:20:16;;;;;;;2.47;0.87;;;;;7.90;99527.00;;;;5037101;28;20604;-72
2024/01/02 01:23:03;;;;;;;2.43;0.87;;;;;7.90;99519.00;;;;5029072;28;20240;-68
2024/01/02 01:25:50;;;;;;;1.23;0.97;;;;;7.90;99511.00;;;;5029135;28;20716;-70
2024/01/02 01:28:36;;;;;;;1.43;1.07;;;;;7.90;99504.00;;;;5029559;28;20232;-69
2024/01/02 01:31:22;;;;;;;1.80;1.20;;;;;7.90;99500.00;;;;5030309;28;20839;-70
2024/01/02 01:34:09;;;;;;;0.97;0.90;;;;;7.90;99494.00;;;;5027029;28;20249;-71
2024/01/02 01:36:56;;;;;;;6.60;1.37;;;;;7.90;99488.00;;;;5031571;28;21307;-70
2024/01/02 01:39:42;;;;;;;1.73;1.10;;;;;7.80;99476.00;;;;5031772;28;20223;-69
2024/01/02 01:42:28;;;;;;;1.37;0.90;;;;;7.80;99468.00;;;;5029702;28;20377;-71
2024/01/02 01:45:15;;;;;;;1.53;1.10;;;;;7.90;99457.00;;;;5033965;28;20824;-69
2024/01/02 01:48:06;;;;;;;2.70;1.30;;;;;7.80;99443.00;;;;5031055;28;20330;-66
2024/01/02 01:50:52;;;;;;;2.57;0.90;;;;;7.80;99441.00;;;;5031290;28;20230;-71
2024/01/02 01:53:40;;;;;;;1.03;0.80;;;;;7.90;99433.00;;;;5029777;28;20241;-72
2024/01/02 01:56:27;;;;;;;1.60;1.07;;;;;7.90;99429.00;;;;5029575;28;20235;-70
2024/01/02 01:59:15;;;;;;;1.10;1.00;;;;;7.90;99419.00;;;;5035974;28;20235;-71
2024/01/02 02:02:02;;;;;;;0.87;0.80;;;;;7.90;99406.00;;;;5035763;28;20720;-70
2024/01/02 02:04:50;;;;;;;4.07;1.20;;;;;7.80;99393.00;;;;5032292;28;20238;-69
2024/01/02 02:07:40;;;;;;;1.27;1.17;;;;;7.80;99390.00;;;;5032013;28;20597;-70
2024/01/02 02:10:28;;;;;;;1.50;1.10;;;;;7.80;99376.00;;;;5031610;28;20743;-71
2024/01/02 02:13:15;;;;;;;2.47;1.30;;;;;7.90;99355.00;;;;5034879;28;20239;-70
2024/01/02 02:16:01;;;;;;;0.70;0.70;;;;;7.90;99354.00;;;;5035233;28;20232;-72
2024/01/02 02:18:48;;;;;;;0.90;0.90;;;;;7.90;99342.00;;;;5032666;28;20367;-71
2024/01/02 02:21:36;;;;;;;2.20;1.13;;;;;7.90;99331.00;;;;5032158;28;20301;-69
2024/01/02 02:24:24;;;;;;;1.13;1.00;;;;;7.90;99327.00;;;;5027902;28;20228;-70
2024/01/02 02:27:12;;;;;;;0.97;0.97;;;;;7.90;99316.00;;;;5032956;28;20240;-69
2024/01/02 02:29:58;;;;;;;1.17;1.07;;;;;7.90;99292.00;;;;5034639;28;20338;-71
2024/01/02 02:32:45;;;;;;;1.43;0.77;;;;;8.00;99287.00;;;;5035676;28;20251;-70
2024/01/02 02:35:31;;;;;;;1.43;1.10;;;;;7.90;99279.00;;;;5035749;28;20725;-70
2024/01/02 02:38:18;;;;;;;1.47;0.90;;;;;7.90;99280.00;;;;5037941;28;20222;-71
2024/01/02 02:41:09;;;;;;;1.70;1.03;;;;;8.00;99284.00;;;;5036458;28;20309;-70
2024/01/02 02:43:55;;;;;;;1.33;0.90;;;;;7.90;99273.00;;;;5033950;28;20334;-72
2024/01/02 02:46:41;;;;;;;0.97;0.80;;;;;8.00;99269.00;;;;5036402;28;20231;-70
2024/01/02 02:49:28;;;;;;;4.10;1.20;;;;;7.90;99252.00;;;;5039589;28;20237;-70
2024/01/02 02:52:14;;;;;;;0.60;0.60;;;;;8.00;99240.00;;;;5041709;28;20249;-69
2024/01/02 02:55:00;;;;;;;0.80;0.80;;;;;7.90;99219.00;;;;5039457;28;20227;-70
2024/01/02 02:57:48;;;;;;;0.60;0.60;;;;;7.90;99216.00;;;;5039834;28;20332;-69
2024/01/02 03:00:35;;;;;;;1.23;0.93;;;;;8.00;99187.00;;;;5037651;28;20231;-69
2024/01/02 03:03:22;;;;;;;0.70;0.70;;;;;7.90;99172.00;;;;5035857;28;20627;-70
2024/01/02 03:06:08;;;;;;;1.43;1.07;;;;;7.90;99161.00;;;;5034059;28;20233;-69
2024/01/02 03:08:55;;;;;;;0.70;0.70;;;;;7.80;99137.00;;;;5034574;28;20224;-70
2024/01/02 03:11:41;;;;;;;1.03;0.93;;;;;7.90;99137.00;;;;5038653;28;20263;-71
2024/01/02 03:14:28;;;;;;;1.27;0.83;;;;;7.90;99114.00;;;;5037602;28;20228;-70
2024/01/02 03:17:15;;;;;;;2.03;0.70;;;;;7.80;99111.00;;;;5031621;28;20229;-70
2024/01/02 03:20:02;;;;;;;1.97;1.10;;;;;7.80;99098.00;;;;5038721;28;20234;-71
2024/01/02 03:22:48;;;;;;;1.03;0.70;;;;;7.90;99086.00;;;;5038121;28;20336;-69
2024/01/02 03:25:34;;;;;;;0.77;0.70;;;;;7.80;99091.00;;;;5033981;28;20235;-69
2024/01/02 03:28:20;;;;;;;1.00;0.90;;;;;7.90;99076.00;;;;5029419;28;20735;-70
2024/01/02 03:31:08;;;;;;;0.60;0.60;;;;;7.90;99065.00;;;;5036870;28;20227;-69
2024/01/02 03:33:55;;;;;;;1.57;0.90;;;;;7.90;99060.00;;;;5034751;28;20802;-70
2024/01/02 03:36:41;;;;;;;4.00;1.33;;;;;7.80;99052.00;;;;5035370;28;20241;-70
2024/01/02 03:39:28;;;;;;;0.70;0.70;;;;;7.80;99038.00;;;;5036037;28;20343;-69
2024/01/02 03:42:14;;;;;;;0.63;0.63;;;;;7.80;99032.00;;;;5036249;28;20305;-69
2024/01/02 03:45:00;;;;;;;0.60;0.60;;;;;7.80;99021.00;;;;5037589;28;20236;-72
2024/01/02 03:47:48;;;;;;;1.23;0.80;;;;;7.90;99003.00;;;;5036398;28;20362;-70
2024/01/02 03:50:35;;;;;;;0.60;0.60;;;;;7.80;99008.00;;;;5038899;28;20234;-71
2024/01/02 03:53:21;;;;;;;2.00;0.70;;;;;7.80;98998.00;;;;5039409;28;20719;-72
2024/01/02 03:56:08;;;;;;;1.30;0.80;;;;;7.80;98994.00;;;;5031959;28;20278;-69
2024/01/02 03:58:54;;;;;;;0.90;0.90;;;;;7.90;98975.00;;;;5038326;28;20794;-69
2024/01/02 04:01:44;;;;;;;0.80;0.80;;;;;7.80;98965.00;;;;5036389;28;20241;-71
2024/01/02 04:04:31;;;;;;;0.50;0.50;;;;;7.80;98967.00;;;;5037477;28;20222;-69
2024/01/02 04:07:18;;;;;;;0.60;0.60;;;;;7.80;98966.00;;;;5037297;28;20222;-70
2024/01/02 04:10:05;;;;;;;0.53;0.53;;;;;7.90;98944.00;;;;5034671;28;20306;-70
2024/01/02 04:12:51;;;;;;;1.93;0.70;;;;;7.90;98943.00;;;;5037065;28;20316;-70
2024/01/02 04:15:37;;;;;;;0.50;0.50;;;;;7.80;98919.00;;;;5036512;28;20243;-70
2024/01/02 04:18:23;;;;;;;0.50;0.50;;;;;7.90;98898.00;;;;5038617;28;20242;-72
2024/01/02 04:21:11;;;;;;;0.70;0.70;;;;;7.90;98893.00;;;;5036935;28;20636;-69
2024/01/02 04:23:57;;;;;;;1.13;0.60;;;;;7.80;98882.00;;;;5036246;28;20294;-73
2024/01/02 04:26:44;;;;;;;0.40;0.40;;;;;7.90;98869.00;;;;5041366;28;20375;-72
2024/01/02 04:29:30;;;;;;;1.00;0.60;;;;;7.90;98869.00;;;;5035640;28;20306;-69
2024/01/02 04:32:17;;;;;;;1.23;0.60;;;;;8.00;98871.00;;;;5031229;28;20347;-68
2024/01/02 04:35:03;;;;;;;0.97;0.57;;;;;8.00;98858.00;;;;5038481;28;20230;-70
2024/01/02 04:37:51;;;;;;;0.60;0.60;;;;;8.00;98848.00;;;;5037048;28;20238;-69
2024/01/02 04:40:37;;;;;;;0.60;0.60;;;;;7.90;98830.00;;;;5037698;28;20230;-72
2024/01/02 04:43:24;;;;;;;0.60;0.60;;;;;8.00;98811.00;;;;5038764;28;20358;-70
2024/01/02 04:46:11;;;;;;;0.40;0.40;;;;;8.00;98809.00;;;;5038573;28;20720;-69
2024/01/02 04:48:57;;;;;;;1.50;0.60;;;;;8.00;98788.00;;;;5035563;28;20808;-70
2024/01/02 04:51:44;;;;;;;0.50;0.50;;;;;8.00;98786.00;;;;5035653;28;20287;-72
2024/01/02 04:54:31;;;;;;;0.83;0.53;;;;;7.90;98783.00;;;;5034804;28;20277;-69
2024/01/02 04:57:18;;;;;;;0.50;0.50;;;;;8.10;98776.00;;;;5042948;28;20320;-70
2024/01/02 05:00:06;;;;;;;0.50;0.50;;;;;8.10;98771.00;;;;5036131;28;20228;-70
2024/01/02 05:02:52;;;;;;;0.60;0.60;;;;;8.10;98779.00;;;;5038527;28;20238;-69
2024/01/02 05:05:39;;;;;;;0.50;0.50;;;;;8.10;98785.00;;;;5037034;28;20608;-70
2024/01/02 05:08:25;;;;;;;0.70;0.70;;;;;8.10;98786.00;;;;5032260;28;20232;-70
2024/01/02 05:11:14;;;;;;;0.50;0.50;;;;;8.10;98772.00;;;;5032734;28;20265;-71
2024/01/02 05:14:01;;;;;;;0.70;0.70;;;;;8.10;98736.00;;;;5040962;28;20279;-70
2024/01/02 05:16:47;;;;;;;0.43;0.43;;;;;8.10;98739.00;;;;5031043;28;20253;-69
2024/01/02 05:19:33;;;;;;;0.47;0.47;;;;;8.10;98749.00;;;;5036011;28;20873;-70
2024/01/02 05:22:20;;;;;;;0.53;0.53;;;;;8.20;98762.00;;;;5034702;28;20229;-70
2024/01/02 05:25:07;;;;;;;0.60;0.60;;;;;8.10;98750.00;;;;5031614;28;20232;-70
2024/01/02 05:27:55;;;;;;;0.60;0.60;;;;;8.20;98747.00;;;;5037976;28;20241;-69
2024/01/02 05:30:42;;;;;;;0.50;0.50;;;;;8.20;98720.00;;;;5029091;28;20608;-72
2024/01/02 05:33:28;;;;;;;0.50;0.50;;;;;8.20;98702.00;;;;5036563;28;20234;-71
2024/01/02 05:36:14;;;;;;;0.50;0.50;;;;;8.20;98702.00;;;;5034021;28;20230;-70
2024/01/02 05:39:01;;;;;;;0.60;0.60;;;;;8.20;98712.00;;;;5035174;28;20277;-72
2024/01/02 05:41:47;;;;;;;0.60;0.60;;;;;8.20;98715.00;;;;5029056;28;20391;-70
2024/01/02 05:44:35;;;;;;;0.60;0.60;;;;;8.30;98728.00;;;;5032265;28;20658;-71
2024/01/02 05:47:21;;;;;;;0.60;0.60;;;;;8.30;98721.00;;;;5033565;28;20897;-71
2024/01/02 05:50:08;;;;;;;0.50;0.50;;;;;8.30;98714.00;;;;5039540;28;20294;-70
2024/01/02 05:52:54;;;;;;;0.47;0.47;;;;;8.40;98712.00;;;;5029029;28;20618;-70
2024/01/02 05:55:41;;;;;;;0.50;0.50;;;;;8.30;98686.00;;;;5026479;28;20284;-70
2024/01/02 05:58:27;;;;;;;0.70;0.70;;;;;8.30;98678.00;;;;5030084;28;20236;-69
2024/01/02 06:01:15;;;;;;;0.70;0.70;;;;;8.40;98669.00;;;;5027976;28;20286;-71
2024/01/02 06:04:01;;;;;;;0.60;0.60;;;;;8.40;98678.00;;;;5026918;28;20220;-71
2024/01/02 06:06:47;;;;;;;0.60;0.60;;;;;8.40;98675.00;;;;5027891;28;20249;-72
2024/01/02 06:09:34;;;;;;;0.50;0.50;;;;;8.40;98665.00;;;;5029736;28;20240;-72
2024/01/02 06:12:20;;;;;;;0.50;0.50;;;;;8.50;98683.00;;;;5031769;28;20727;-70
2024/01/02 06:15:07;;;;;;;0.70;0.70;;;;;8.60;98676.00;;;;5025863;28;20228;-71
2024/01/02 06:17:54;;;;;;;0.93;0.70;;;;;8.60;98666.00;;;;5029323;28;20846;-71
2024/01/02 06:20:41;;;;;;;1.33;0.60;;;;;8.60;98664.00;;;;5031426;28;20654;-71
2024/01/02 06:23:28;;;;;;;0.80;0.80;;;;;8.70;98672.00;;;;5032357;28;20376;-70
2024/01/02 06:26:16;;;;;;;0.70;0.70;;;;;8.70;98665.00;;;;5030251;28;20347;-70
2024/01/02 06:29:03;;;;;;;0.73;0.73;;;;;8.80;98677.00;;;;5027029;28;20306;-70
2024/01/02 06:31:49;;;;;;;0.70;0.70;;;;;8.80;98670.00;;;;5029476;28;20331;-70
2024/01/02 06:34:37;;;;;;;0.60;0.60;;;;;8.90;98676.00;;;;5025280;28;20248;-72
2024/01/02 06:37:23;;;;;;;0.80;0.80;;;;;8.90;98674.00;;;;5028626;28;20767;-70
2024/01/02 06:40:10;;;;;;;1.10;1.10;;;;;8.90;98668.00;;;;5026901;28;20284;-72
2024/01/02 06:42:57;;;;;;;1.30;1.20;;;;;8.90;98666.00;;;;5029417;28;20708;-70
2024/01/02 06:45:44;;;;;;;1.30;1.20;;;;;9.00;98662.00;;;;5030903;28;20376;-70
2024/01/02 06:48:30;;;;;;;1.20;1.10;;;;;9.00;98677.00;;;;5027771;28;20233;-70
2024/01/02 06:51:18;;;;;;;1.40;1.30;;;;;9.10;98684.00;;;;5030184;28;20766;-71
2024/01/02 06:54:04;;;;;;;1.40;1.30;;;;;9.10;98684.00;;;;5029508;28;20621;-66
2024/01/02 06:56:50;;;;;;;2.03;1.70;;;;;9.20;98682.00;;;;5026757;28;20228;-71
2024/01/02 06:59:37;;;;;;;1.60;1.23;;;;;9.20;98672.00;;;;5029435;28;20761;-73
2024/01/02 07:02:23;;;;;;;1.97;1.60;;;;;9.40;98682.00;;;;5023720;28;20395;-72
2024/01/02 07:05:13;;;;;;;1.37;1.27;;;;;9.40;98687.00;;;;5028774;28;20611;-70
2024/01/02 07:08:00;;;;;;;1.43;1.33;;;;;9.50;98677.00;;;;5029574;28;20457;-71
2024/01/02 07:10:47;;;;;;;1.60;1.50;;;;;9.50;98689.00;;;;5029409;28;20227;-71
2024/01/02 07:13:33;;;;;;;1.60;1.50;;;;;9.60;98694.00;;;;5029259;28;20370;-70
2024/01/02 07:16:19;;;;;;;2.53;2.10;;;;;9.60;98699.00;;;;5030207;28;20298;-68
2024/01/02 07:19:06;;;;;;;2.33;2.00;;;;;9.60;98682.00;;;;5032244;28;20233;-69
2024/01/02 07:21:53;;;;;;;2.47;2.00;;;;;9.60;98691.00;;;;5028986;28;20333;-71
2024/01/02 07:24:40;;;;;;;3.27;2.67;;;;;9.70;98704.00;;;;5030647;28;20257;-71
2024/01/02 07:27:27;;;;;;;3.10;2.47;;;;;9.70;98702.00;;;;5035510;28;20594;-71
2024/01/02 07:30:13;;;;;;;3.60;2.60;;;;;9.70;98706.00;;;;5030899;28;20225;-70
2024/01/02 07:32:59;;;;;;;5.80;2.53;;;;;9.80;98711.00;;;;5028339;28;20241;-72
2024/01/02 07:35:46;;;;;;;2.80;2.40;;;;;9.80;98706.00;;;;5030209;28;20276;-71
2024/01/02 07:38:32;;;;;;;5.73;3.23;;;;;9.90;98714.00;;;;5037753;28;20229;-71
2024/01/02 07:41:20;;;;;;;4.37;2.33;;;;;10.00;98717.00;;;;5038666;28;20224;-71
2024/01/02 07:44:07;;;;;;;3.00;2.70;;;;;10.00;98712.00;;;;5026776;28;20294;-72
2024/01/02 07:46:53;;;;;;;3.60;2.70;;;;;10.10;98720.00;;;;5032368;28;20619;-73
2024/01/02 07:49:42;;;;;;;4.63;2.90;;;;;10.10;98722.00;;;;5026982;28;20238;-72
2024/01/02 07:52:28;;;;;;;3.60;2.87;;;;;10.10;98723.00;;;;5025692;28;20268;-72
2024/01/02 07:55:15;;;;;;;5.00;3.23;;;;;10.20;98709.00;;;;5035733;28;20248;-73
2024/01/02 07:58:03;;;;;;;4.53;3.27;;;;;10.20;98723.00;;;;5031979;28;21143;-72
2024/01/02 08:00:49;;;;;;;3.73;2.80;;;;;10.20;98732.00;;;;5028555;28;21030;-73
2024/01/02 08:03:35;;;;;;;4.07;2.90;;;;;10.20;98736.00;;;;5030575;28;20333;-73
2024/01/02 08:06:22;;;;;;;7.97;2.87;;;;;10.20;98741.00;;;;5027275;28;20303;-73
2024/01/02 08:09:11;;;;;;;2.57;2.03;;;;;10.30;98736.00;;;;5025462;28;20217;-69
2024/01/02 08:11:58;;;;;;;2.40;1.97;;;;;10.30;98735.00;;;;5029719;28;20228;-72
2024/01/02 08:14:45;;;;;;;5.07;1.97;;;;;10.40;98739.00;;;;5031327;28;20297;-72
2024/01/02 08:17:32;;;;;;;1.80;1.70;;;;;10.40;98740.00;;;;5028766;28;20240;-72
2024/01/02 08:20:18;;;;;;;1.53;1.30;;;;;10.50;98741.00;;;;5031972;28;20237;-72
2024/01/02 08:23:05;;;;;;;1.20;1.13;;;;;10.50;98759.00;;;;5026461;28;20226;-72
2024/01/02 08:25:51;;;;;;;1.77;1.30;;;;;10.60;98765.00;;;;5028526;28;20229;-72
2024/01/02 08:28:38;;;;;;;1.07;0.97;;;;;10.70;98773.00;;;;5027230;28;20237;-71
2024/01/02 08:31:26;;;;;;;1.30;1.20;;;;;10.70;98764.00;;;;5029567;28;20236;-72
2024/01/02 08:34:13;;;;;;;1.40;1.30;;;;;10.70;98775.00;;;;5033656;28;20312;-72
2024/01/02 08:36:59;;;;;;;3.70;1.80;;;;;10.70;98760.00;;;;5030997;28;20233;-72
2024/01/02 08:39:46;;;;;;;1.47;1.37;;;;;10.70;98771.00;;;;5030514;28;20758;-71
2024/01/02 08:42:32;;;;;;;3.70;1.83;;;;;10.80;98777.00;;;;5030395;28;20229;-73
2024/01/02 08:45:18;;;;;;;1.27;1.17;;;;;10.80;98775.00;;;;5034978;28;20264;-71
2024/01/02 08:48:07;;;;;;;1.50;1.40;;;;;10.80;98774.00;;;;5031601;28;20299;-70
2024/01/02 08:50:55;;;;;;;4.37;1.60;;;;;10.90;98781.00;;;;5033024;28;20330;-71
2024/01/02 08:53:41;;;;;;;2.17;1.60;;;;;10.80;98773.00;;;;5032095;28;20311;-72
2024/01/02 08:56:27;;;;;;;2.83;1.90;;;;;10.90;98784.00;;;;5029562;28;20283;-70
2024/01/02 08:59:13;;;;;;;2.73;1.70;;;;;10.90;98771.00;;;;5032810;28;20234;-68
2024/01/02 09:02:00;;;;;;;2.63;2.07;;;;;11.00;98783.00;;;;5045027;28;20233;-71
2024/01/02 09:04:47;;;;;;;2.77;1.63;;;;;11.00;98785.00;;;;5036465;28;20251;-71
2024/01/02 09:07:35;;;;;;;3.03;1.53;;;;;11.00;98786.00;;;;5036155;28;20753;-71
2024/01/02 09:10:22;;;;;;;2.93;2.03;;;;;11.00;98773.00;;;;5040896;28;20240;-71
2024/01/02 09:13:08;;;;;;;2.23;1.77;;;;;11.00;98787.00;;;;5039808;28;20236;-72
2024/01/02 09:15:55;;;;;;;3.73;1.93;;;;;11.10;98793.00;;;;5044126;28;20229;-71
2024/01/02 09:18:41;;;;;;;3.03;1.77;;;;;11.10;98779.00;;;;5043159;28;20229;-73
2024/01/02 09:21:29;;;;;;;2.43;1.70;;;;;11.10;98795.00;;;;5035276;28;20713;-72
2024/01/02 09:24:18;;;;;;;2.17;1.80;;;;;11.10;98788.00;;;;5040411;28;20328;-72
2024/01/02 09:27:08;;;;;;;3.10;1.73;;;;;11.20;98797.00;;;;5040442;28;20741;-71
2024/01/02 09:29:54;;;;;;;5.07;1.90;;;;;11.20;98800.00;;;;5033184;28;20232;-72
2024/01/02 09:32:42;;;;;;;2.60;1.67;;;;;11.20;98799.00;;;;5036726;28;20236;-71
2024/01/02 09:35:28;;;;;;;2.10;1.90;;;;;11.30;98792.00;;;;5042724;28;20229;-68
2024/01/02 09:38:16;;;;;;;2.27;1.47;;;;;11.30;98794.00;;;;5037450;28;20359;-72
2024/01/02 09:41:15;;;;;;;2.33;1.90;;;;;11.30;98796.00;;;;5038399;28;20220;-76
2024/01/02 09:44:22;;;;;;;2.03;1.80;;;;;11.30;98797.00;;;;5031881;28;20231;-71
2024/01/02 09:47:22;;;;;;;1.97;1.60;;;;;11.30;98797.00;;;;5040136;28;20299;-72
2024/01/02 09:50:12;;;;;;;1.90;1.70;;;;;11.30;98792.00;;;;5039166;28;20717;-72
2024/01/02 09:53:22;;;;;;;2.30;1.80;;;;;11.40;98799.00;;;;5032491;28;20228;-74
2024/01/02 09:56:15;;;;;;;2.83;1.60;;;;;11.40;98796.00;;;;5032885;28;20249;-73
2024/01/02 09:59:09;;;;;;;4.10;1.27;;;;;11.40;98805.00;;;;5042020;28;20236;-74
2024/01/02 10:02:12;;;;;;;2.77;1.77;;;;;11.40;98800.00;;;;5037782;28;20264;-73
2024/01/02 10:05:15;;;;;;;1.20;1.10;;;;;11.50;98798.00;;;;5040752;28;20237;-72
2024/01/02 10:08:27;;;;;;;1.87;1.50;;;;;11.50;98801.00;;;;5034615;28;20236;-69
2024/01/02 10:11:22;;;;;;;1.83;1.37;;;;;11.50;98787.00;;;;5037496;28;20238;-71
2024/01/02 10:14:17;;;;;;;5.07;1.37;;;;;11.50;98786.00;;;;5035393;28;20236;-72
2024/01/02 10:17:13;;;;;;;2.13;1.30;;;;;11.50;98781.00;;;;5036073;28;20228;-70
2024/01/02 10:20:08;;;;;;;2.23;1.57;;;;;11.60;98771.00;;;;5029576;28;20237;-72
2024/01/02 10:23:08;;;;;;;2.00;1.80;;;;;11.60;98767.00;;;;5035676;28;20243;-68
2024/01/02 10:26:00;;;;;;;3.37;2.30;;;;;11.60;98759.00;;;;5032787;28;20230;-72
2024/01/02 10:28:50;;;;;;;2.20;1.77;;;;;11.60;98755.00;;;;5039333;28;20248;-76
2024/01/02 10:31:42;;;;;;;5.07;2.63;;;;;11.60;98762.00;;;;5036492;28;20224;-73
2024/01/02 10:34:34;;;;;;;5.60;3.33;;;;;11.60;98765.00;;;;5041206;28;20330;-75
2024/01/02 10:37:27;;;;;;;4.50;3.70;;;;;11.70;98750.00;;;;5041156;28;20233;-73
2024/01/02 10:40:19;;;;;;;5.43;3.77;;;;;11.60;98748.00;;;;5041856;28;20244;-74
2024/01/02 10:43:15;;;;;;;6.63;4.17;;;;;11.70;98744.00;;;;5040471;28;20224;-72
2024/01/02 10:46:07;;;;;;;7.07;4.27;;;;;11.70;98753.00;;;;5040076;28;20229;-73
2024/01/02 10:48:59;;;;;;;3.63;3.10;;;;;11.70;98747.00;;;;5037420;28;20225;-74
2024/01/02 10:51:52;;;;;;;5.47;3.53;;;;;11.70;98746.00;;;;5035785;28;20608;-73
2024/01/02 10:54:51;;;;;;;4.10;3.30;;;;;11.70;98734.00;;;;5043420;28;20261;-75
2024/01/02 10:57:44;;;;;;;6.07;3.40;;;;;11.70;98748.00;;;;5044052;28;20311;-74
2024/01/02 11:00:39;;;;;;;3.70;2.93;;;;;11.70;98746.00;;;;5039971;28;20279;-72
2024/01/02 11:03:28;;;;;;;3.57;2.43;;;;;11.70;98737.00;;;;5042685;28;20752;-73
2024/01/02 11:06:23;;;;;;;3.57;2.60;;;;;11.70;98741.00;;;;5036871;28;20587;-70
2024/01/02 11:09:13;;;;;;;3.13;2.47;;;;;11.70;98743.00;;;;5041427;28;20233;-72
2024/01/02 11:12:00;;;;;;;3.30;2.67;;;;;11.70;98724.00;;;;5040321;28;20303;-73
2024/01/02 11:15:01;;;;;;;3.50;2.60;;;;;11.70;98730.00;;;;5039970;28;20606;-73
2024/01/02 11:17:52;;;;;;;6.00;3.07;;;;;11.70;98709.00;;;;5047235;28;20356;-68
2024/01/02 11:20:45;;;;;;;3.60;2.70;;;;;11.70;98712.00;;;;5046904;28;20353;-74
2024/01/02 11:23:34;;;;;;;4.00;3.27;;;;;11.70;98708.00;;;;5039521;28;20228;-72
2024/01/02 11:26:24;;;;;;;3.17;2.83;;;;;11.70;98704.00;;;;5043979;28;20609;-72
2024/01/02 11:29:17;;;;;;;3.83;3.10;;;;;11.70;98702.00;;;;5039000;28;20221;-73
2024/01/02 11:32:09;;;;;;;3.40;3.00;;;;;11.70;98702.00;;;;5035446;28;20352;-72
2024/01/02 11:35:05;;;;;;;3.63;3.10;;;;;11.70;98693.00;;;;5038556;28;20371;-71
2024/01/02 11:38:00;;;;;;;4.07;3.27;;;;;11.70;98688.00;;;;5032494;28;20237;-73
2024/01/02 11:40:59;;;;;;;3.87;2.97;;;;;11.70;98685.00;;;;5047531;28;20234;-73
2024/01/02 11:43:54;;;;;;;2.97;2.63;;;;;11.70;98682.00;;;;5044574;28;20299;-71
2024/01/02 11:46:44;;;;;;;2.90;2.50;;;;;11.70;98692.00;;;;5045950;28;20302;-71
2024/01/02 11:49:33;;;;;;;3.10;2.80;;;;;11.70;98694.00;;;;5040914;28;20603;-73
2024/01/02 11:52:23;;;;;;;3.30;2.50;;;;;11.70;98687.00;;;;5039370;28;20236;-71
2024/01/02 11:55:17;;;;;;;2.83;2.47;;;;;11.70;98676.00;;;;5037046;28;20233;-72
2024/01/02 11:58:12;;;;;;;4.30;2.60;;;;;11.70;98679.00;;;;5046163;28;20271;-71
2024/01/02 12:01:11;;;;;;;2.13;1.77;;;;;11.70;98676.00;;;;5036422;28;20233;-70
2024/01/02 12:04:08;;;;;;;2.90;2.20;;;;;11.70;98682.00;;;;5043455;28;20235;-71
2024/01/02 12:07:02;;;;;;;1.80;1.70;;;;;11.70;98672.00;;;;5033443;28;20280;-70
2024/01/02 12:09:52;;;;;;;2.90;1.87;;;;;11.70;98656.00;;;;5041193;28;20230;-72
2024/01/02 12:12:55;;;;;;;2.43;1.80;;;;;11.70;98671.00;;;;5037081;28;20250;-72
2024/01/02 12:15:48;;;;;;;1.77;1.67;;;;;11.70;98636.00;;;;5029474;28;20618;-72
2024/01/02 12:18:39;;;;;;;1.70;1.60;;;;;11.70;98646.00;;;;5036598;28;20249;-71
2024/01/02 12:21:32;;;;;;;2.40;2.20;;;;;11.70;98652.00;;;;5041168;28;20231;-73
2024/01/02 12:24:18;;;;;;;2.53;2.33;;;;;11.70;98652.00;;;;5033335;28;20237;-72
2024/01/02 12:27:07;;;;;;;2.50;2.27;;;;;11.70;98647.00;;;;5043036;28;20237;-69
2024/01/02 12:29:58;;;;;;;2.07;1.87;;;;;11.70;98642.00;;;;5046237;28;20731;-72
2024/01/02 12:32:51;;;;;;;2.27;1.90;;;;;11.60;98637.00;;;;5044874;28;20295;-73
2024/01/02 12:35:52;;;;;;;2.07;1.90;;;;;11.60;98622.00;;;;5037320;28;20274;-72
2024/01/02 12:38:47;;;;;;;3.00;2.10;;;;;11.60;98623.00;;;;5044381;28;20232;-72
2024/01/02 12:41:38;;;;;;;2.03;1.83;;;;;11.60;98616.00;;;;5043852;28;20244;-72
2024/01/02 12:44:29;;;;;;;1.57;1.47;;;;;11.60;98618.00;;;;5045484;28;20699;-72
2024/01/02 12:47:20;;;;;;;1.60;1.50;;;;;11.50;98619.00;;;;5039487;28;20940;-70
2024/01/02 12:50:08;;;;;;;1.37;1.27;;;;;11.50;98625.00;;;;5032996;28;20225;-72
2024/01/02 12:53:09;;;;;;;1.67;1.37;;;;;11.50;98615.00;;;;5037764;28;20577;-70
2024/01/02 12:56:01;;;;;;;1.00;1.00;;;;;11.40;98605.00;;;;5041196;28;20229;-72
2024/01/02 12:58:47;;;;;;;1.37;1.00;;;;;11.40;98588.00;;;;5044150;28;20352;-72
2024/01/02 13:01:37;;;;;;;1.10;1.00;;;;;11.40;98584.00;;;;5042929;28;20224;-73
2024/01/02 13:04:25;;;;;;;1.10;1.10;;;;;11.40;98590.00;;;;5040188;28;20347;-72
2024/01/02 13:07:12;;;;;;;0.70;0.70;;;;;11.40;98579.00;;;;5038867;28;20656;-72
2024/01/02 13:10:00;;;;;;;0.73;0.73;;;;;11.30;98578.00;;;;5045303;28;20251;-73
2024/01/02 13:12:47;;;;;;;1.07;0.80;;;;;11.30;98573.00;;;;5040176;28;20308;-73
2024/01/02 13:15:34;;;;;;;0.80;0.80;;;;;11.20;98578.00;;;;5038478;28;20244;-74
2024/01/02 13:18:22;;;;;;;0.77;0.77;;;;;11.20;98559.00;;;;5028710;28;20242;-73
2024/01/02 13:21:10;;;;;;;0.70;0.70;;;;;11.20;98558.00;;;;5041674;28;20263;-72
2024/01/02 13:23:57;;;;;;;0.87;0.87;;;;;11.10;98556.00;;;;5038506;28;20599;-73
2024/01/02 13:26:45;;;;;;;1.10;1.00;;;;;11.20;98543.00;;;;5034960;28;20228;-73
2024/01/02 13:29:31;;;;;;;1.03;0.77;;;;;11.10;98544.00;;;;5040215;28;20883;-75
2024/01/02 13:32:19;;;;;;;0.70;0.70;;;;;11.20;98537.00;;;;5038561;28;20228;-72
2024/01/02 13:35:16;;;;;;;0.87;0.87;;;;;11.10;98524.00;;;;5038023;28;20276;-73
2024/01/02 13:38:04;;;;;;;0.70;0.70;;;;;11.10;98512.00;;;;5042409;28;20378;-71
2024/01/02 13:41:02;;;;;;;0.80;0.80;;;;;11.10;98513.00;;;;5041145;28;20232;-73
2024/01/02 13:43:49;;;;;;;0.70;0.70;;;;;11.10;98509.00;;;;5032764;28;20596;-69
2024/01/02 13:46:37;;;;;;;0.90;0.90;;;;;11.10;98491.00;;;;5037572;28;20232;-74
2024/01/02 13:49:44;;;;;;;1.20;1.10;;;;;11.10;98493.00;;;;5041600;28;20244;-74
2024/01/02 13:52:33;;;;;;;0.87;0.87;;;;;11.10;98477.00;;;;5027299;28;20233;-73
2024/01/02 13:55:27;;;;;;;1.10;1.00;;;;;11.00;98468.00;;;;5032339;28;20234;-73
2024/01/02 13:58:15;;;;;;;1.03;1.00;;;;;11.00;98464.00;;;;5033583;28;20352;-73
2024/01/02 14:01:02;;;;;;;2.33;1.30;;;;;11.00;98458.00;;;;5038255;28;20763;-72
2024/01/02 14:03:49;;;;;;;1.30;1.20;;;;;10.90;98462.00;;;;5042464;28;20244;-72
2024/01/02 14:06:38;;;;;;;1.03;1.00;;;;;10.90;98467.00;;;;5038282;28;20225;-73
2024/01/02 14:09:26;;;;;;;1.23;1.13;;;;;10.90;98460.00;;;;5044098;28;20229;-74
2024/01/02 14:12:13;;;;;;;1.73;1.63;;;;;10.90;98438.00;;;;5038803;28;20443;-73